sensor_id;sensor_type;location;lat;lon;timestamp;pressure;altitude;pressure_sealevel;temperature;humidity
70690;BME280;58267;51.156;17.044;2023-04-19T00:00:56;100865.96;;;9.93;49.21
70690;BME280;58267;51.156;17.044;2023-04-19T00:03:21;100863.90;;;9.93;49.09
70690;BME280;58267;51.156;17.044;2023-04-19T00:05:47;100857.68;;;9.72;49.25
70690;BME280;58267;51.156;17.044;2023-04-19T00:08:12;100854.67;;;10.31;47.84
70690;BME280;58267;51.156;17.044;2023-04-19T00:10:38;100846.27;;;10.70;46.82
70690;BME280;58267;51.156;17.044;2023-04-19T00:13:03;100849.59;;;10.00;48.56
70690;BME280;58267;51.156;17.044;2023-04-19T00:15:28;100846.97;;;9.61;49.95
70690;BME280;58267;51.156;17.044;2023-04-19T00:17:53;100846.26;;;10.04;48.79
70690;BME280;58267;51.156;17.044;2023-04-19T00:20:20;100845.46;;;10.20;49.30
70690;BME280;58267;51.156;17.044;2023-04-19T00:22:45;100840.68;;;9.02;51.47
70690;BME280;58267;51.156;17.044;2023-04-19T00:25:10;100841.17;;;8.87;51.72
70690;BME280;58267;51.156;17.044;2023-04-19T00:27:36;100838.59;;;9.87;49.83
70690;BME280;58267;51.156;17.044;2023-04-19T00:30:02;100836.47;;;9.42;49.23
70690;BME280;58267;51.156;17.044;2023-04-19T00:32:27;100831.48;;;9.95;48.26
70690;BME280;58267;51.156;17.044;2023-04-19T00:40:28;100817.75;;;8.13;52.17
70690;BME280;58267;51.156;17.044;2023-04-19T00:42:53;100819.30;;;7.94;52.12
70690;BME280;58267;51.156;17.044;2023-04-19T00:45:18;100811.81;;;7.70;52.52
70690;BME280;58267;51.156;17.044;2023-04-19T00:47:44;100812.83;;;7.55;53.32
70690;BME280;58267;51.156;17.044;2023-04-19T00:50:10;100809.41;;;8.65;51.37
70690;BME280;58267;51.156;17.044;2023-04-19T00:52:35;100807.54;;;8.52;50.06
70690;BME280;58267;51.156;17.044;2023-04-19T00:55:01;100804.61;;;7.83;51.34
70690;BME280;58267;51.156;17.044;2023-04-19T00:57:28;100806.44;;;8.67;49.43
70690;BME280;58267;51.156;17.044;2023-04-19T00:59:53;100801.95;;;8.37;50.46
70690;BME280;58267;51.156;17.044;2023-04-19T01:02:18;100797.67;;;8.64;49.60
70690;BME280;58267;51.156;17.044;2023-04-19T01:04:44;100791.48;;;8.26;50.38
70690;BME280;58267;51.156;17.044;2023-04-19T01:07:09;100794.41;;;9.01;48.80
70690;BME280;58267;51.156;17.044;2023-04-19T01:09:34;100791.43;;;9.38;47.17
70690;BME280;58267;51.156;17.044;2023-04-19T01:12:00;100788.80;;;7.70;50.69
70690;BME280;58267;51.156;17.044;2023-04-19T01:14:26;100788.48;;;8.65;49.03
70690;BME280;58267;51.156;17.044;2023-04-19T01:16:51;100780.33;;;8.25;49.64
70690;BME280;58267;51.156;17.044;2023-04-19T01:19:16;100781.50;;;9.18;47.45
70690;BME280;58267;51.156;17.044;2023-04-19T01:21:42;100778.11;;;9.20;47.00
70690;BME280;58267;51.156;17.044;2023-04-19T01:24:07;100773.43;;;8.39;47.23
70690;BME280;58267;51.156;17.044;2023-04-19T01:26:32;100769.31;;;8.27;48.23
70690;BME280;58267;51.156;17.044;2023-04-19T01:28:59;100771.08;;;7.41;49.42
70690;BME280;58267;51.156;17.044;2023-04-19T01:31:24;100764.49;;;7.08;50.37
70690;BME280;58267;51.156;17.044;2023-04-19T01:33:49;100765.88;;;7.43;50.04
70690;BME280;58267;51.156;17.044;2023-04-19T01:36:15;100766.08;;;7.19;49.51
70690;BME280;58267;51.156;17.044;2023-04-19T01:38:40;100763.92;;;8.07;48.11
70690;BME280;58267;51.156;17.044;2023-04-19T01:41:06;100763.96;;;7.51;48.19
70690;BME280;58267;51.156;17.044;2023-04-19T01:43:32;100758.65;;;7.16;47.89
70690;BME280;58267;51.156;17.044;2023-04-19T01:45:58;100760.96;;;7.26;46.77
70690;BME280;58267;51.156;17.044;2023-04-19T01:48:23;100760.72;;;7.06;46.19
70690;BME280;58267;51.156;17.044;2023-04-19T01:50:49;100754.16;;;7.31;44.72
70690;BME280;58267;51.156;17.044;2023-04-19T01:53:14;100758.62;;;6.67;45.40
70690;BME280;58267;51.156;17.044;2023-04-19T01:55:39;100757.53;;;7.05;44.25
70690;BME280;58267;51.156;17.044;2023-04-19T01:58:06;100757.75;;;5.98;45.75
70690;BME280;58267;51.156;17.044;2023-04-19T02:00:32;100755.76;;;7.05;44.33
70690;BME280;58267;51.156;17.044;2023-04-19T02:02:57;100753.32;;;7.74;43.62
70690;BME280;58267;51.156;17.044;2023-04-19T02:05:23;100751.65;;;7.48;45.24
70690;BME280;58267;51.156;17.044;2023-04-19T02:07:49;100752.90;;;7.27;45.69
70690;BME280;58267;51.156;17.044;2023-04-19T02:10:14;100752.88;;;7.11;46.31
70690;BME280;58267;51.156;17.044;2023-04-19T02:12:39;100751.26;;;6.97;46.63
70690;BME280;58267;51.156;17.044;2023-04-19T02:15:06;100748.84;;;6.79;46.28
70690;BME280;58267;51.156;17.044;2023-04-19T02:17:31;100748.07;;;6.70;45.91
70690;BME280;58267;51.156;17.044;2023-04-19T02:19:56;100748.09;;;6.47;45.51
70690;BME280;58267;51.156;17.044;2023-04-19T02:22:22;100753.77;;;6.01;45.49
70690;BME280;58267;51.156;17.044;2023-04-19T02:24:49;100755.68;;;6.47;44.54
70690;BME280;58267;51.156;17.044;2023-04-19T02:27:13;100743.55;;;7.45;42.73
70690;BME280;58267;51.156;17.044;2023-04-19T02:29:39;100749.39;;;6.02;43.12
70690;BME280;58267;51.156;17.044;2023-04-19T02:32:04;100749.18;;;6.87;42.10
70690;BME280;58267;51.156;17.044;2023-04-19T02:34:29;100746.67;;;6.86;41.45
70690;BME280;58267;51.156;17.044;2023-04-19T02:36:55;100743.43;;;6.55;41.73
70690;BME280;58267;51.156;17.044;2023-04-19T02:39:21;100735.70;;;7.61;40.74
70690;BME280;58267;51.156;17.044;2023-04-19T02:41:46;100731.80;;;8.49;39.56
70690;BME280;58267;51.156;17.044;2023-04-19T02:44:11;100733.10;;;7.52;40.10
70690;BME280;58267;51.156;17.044;2023-04-19T02:46:37;100732.87;;;7.98;40.32
70690;BME280;58267;51.156;17.044;2023-04-19T02:49:02;100736.26;;;7.39;40.99
70690;BME280;58267;51.156;17.044;2023-04-19T02:51:28;100727.76;;;8.04;39.82
70690;BME280;58267;51.156;17.044;2023-04-19T02:53:55;100721.93;;;7.51;40.00
70690;BME280;58267;51.156;17.044;2023-04-19T02:56:20;100722.01;;;8.08;39.19
70690;BME280;58267;51.156;17.044;2023-04-19T02:58:46;100724.21;;;7.45;39.62
70690;BME280;58267;51.156;17.044;2023-04-19T03:01:11;100720.22;;;7.38;40.21
70690;BME280;58267;51.156;17.044;2023-04-19T03:03:37;100715.07;;;7.11;40.47
70690;BME280;58267;51.156;17.044;2023-04-19T03:06:02;100715.53;;;8.17;38.76
70690;BME280;58267;51.156;17.044;2023-04-19T03:08:28;100716.27;;;7.66;38.47
70690;BME280;58267;51.156;17.044;2023-04-19T03:10:53;100717.99;;;7.14;39.76
70690;BME280;58267;51.156;17.044;2023-04-19T03:13:18;100717.83;;;6.50;41.47
70690;BME280;58267;51.156;17.044;2023-04-19T03:15:43;100713.23;;;7.09;40.92
70690;BME280;58267;51.156;17.044;2023-04-19T03:18:09;100711.69;;;6.65;40.83
70690;BME280;58267;51.156;17.044;2023-04-19T03:20:35;100699.42;;;7.15;40.43
70690;BME280;58267;51.156;17.044;2023-04-19T03:23:01;100701.45;;;6.31;41.47
70690;BME280;58267;51.156;17.044;2023-04-19T03:25:27;100700.16;;;6.63;41.51
70690;BME280;58267;51.156;17.044;2023-04-19T03:27:52;100701.31;;;6.51;42.16
70690;BME280;58267;51.156;17.044;2023-04-19T03:30:18;100699.39;;;7.21;41.22
70690;BME280;58267;51.156;17.044;2023-04-19T03:32:43;100699.17;;;6.96;41.31
70690;BME280;58267;51.156;17.044;2023-04-19T03:35:09;100694.94;;;7.66;41.09
70690;BME280;58267;51.156;17.044;2023-04-19T03:37:35;100693.66;;;7.20;41.30
70690;BME280;58267;51.156;17.044;2023-04-19T03:40:00;100691.78;;;6.85;41.90
70690;BME280;58267;51.156;17.044;2023-04-19T03:42:26;100703.32;;;6.24;43.66
70690;BME280;58267;51.156;17.044;2023-04-19T03:44:51;100704.81;;;6.46;43.21
70690;BME280;58267;51.156;17.044;2023-04-19T03:47:17;100702.12;;;5.97;44.31
70690;BME280;58267;51.156;17.044;2023-04-19T03:49:42;100704.86;;;6.15;43.89
70690;BME280;58267;51.156;17.044;2023-04-19T03:52:08;100703.86;;;5.15;45.00
70690;BME280;58267;51.156;17.044;2023-04-19T03:54:33;100711.04;;;5.05;45.15
70690;BME280;58267;51.156;17.044;2023-04-19T03:56:58;100708.97;;;5.31;44.05
70690;BME280;58267;51.156;17.044;2023-04-19T03:59:24;100701.04;;;4.95;43.67
70690;BME280;58267;51.156;17.044;2023-04-19T04:01:49;100698.34;;;5.61;43.47
70690;BME280;58267;51.156;17.044;2023-04-19T04:04:16;100705.57;;;5.34;43.32
70690;BME280;58267;51.156;17.044;2023-04-19T04:06:41;100713.52;;;4.78;44.98
70690;BME280;58267;51.156;17.044;2023-04-19T04:09:06;100719.47;;;4.45;47.32
70690;BME280;58267;51.156;17.044;2023-04-19T04:11:32;100720.51;;;3.38;52.58
70690;BME280;58267;51.156;17.044;2023-04-19T04:13:57;100713.59;;;5.17;49.43
70690;BME280;58267;51.156;17.044;2023-04-19T04:16:23;100709.76;;;6.28;47.11
70690;BME280;58267;51.156;17.044;2023-04-19T04:18:48;100709.32;;;6.02;47.11
70690;BME280;58267;51.156;17.044;2023-04-19T04:21:13;100709.58;;;5.25;48.47
70690;BME280;58267;51.156;17.044;2023-04-19T04:23:38;100710.88;;;5.75;47.09
70690;BME280;58267;51.156;17.044;2023-04-19T04:26:04;100711.88;;;5.96;46.49
70690;BME280;58267;51.156;17.044;2023-04-19T04:28:30;100716.87;;;5.45;47.90
70690;BME280;58267;51.156;17.044;2023-04-19T04:30:56;100718.85;;;4.89;48.71
70690;BME280;58267;51.156;17.044;2023-04-19T04:33:21;100723.44;;;4.55;50.95
70690;BME280;58267;51.156;17.044;2023-04-19T04:35:47;100724.13;;;4.25;52.18
70690;BME280;58267;51.156;17.044;2023-04-19T04:38:12;100720.18;;;4.85;50.79
70690;BME280;58267;51.156;17.044;2023-04-19T04:40:37;100721.57;;;4.35;52.53
70690;BME280;58267;51.156;17.044;2023-04-19T04:43:02;100716.92;;;4.46;52.57
70690;BME280;58267;51.156;17.044;2023-04-19T04:45:27;100711.98;;;4.27;52.95
70690;BME280;58267;51.156;17.044;2023-04-19T04:47:53;100713.50;;;4.23;53.07
70690;BME280;58267;51.156;17.044;2023-04-19T04:50:18;100712.40;;;4.74;50.64
70690;BME280;58267;51.156;17.044;2023-04-19T04:52:44;100713.86;;;5.23;49.67
70690;BME280;58267;51.156;17.044;2023-04-19T04:55:10;100711.86;;;4.73;50.35
70690;BME280;58267;51.156;17.044;2023-04-19T04:57:35;100708.64;;;5.17;49.57
70690;BME280;58267;51.156;17.044;2023-04-19T05:00:02;100700.60;;;6.42;47.02
70690;BME280;58267;51.156;17.044;2023-04-19T05:02:26;100705.09;;;6.24;46.36
70690;BME280;58267;51.156;17.044;2023-04-19T05:04:51;100702.58;;;5.64;46.94
70690;BME280;58267;51.156;17.044;2023-04-19T05:07:19;100700.95;;;5.72;47.54
70690;BME280;58267;51.156;17.044;2023-04-19T05:09:43;100708.88;;;4.52;48.72
70690;BME280;58267;51.156;17.044;2023-04-19T05:12:09;100709.44;;;4.07;50.67
70690;BME280;58267;51.156;17.044;2023-04-19T05:14:34;100706.69;;;3.77;52.10
70690;BME280;58267;51.156;17.044;2023-04-19T05:17:00;100710.46;;;3.65;53.03
70690;BME280;58267;51.156;17.044;2023-04-19T05:19:25;100704.53;;;3.66;52.30
70690;BME280;58267;51.156;17.044;2023-04-19T05:21:51;100706.66;;;3.95;51.47
70690;BME280;58267;51.156;17.044;2023-04-19T05:24:16;100702.50;;;3.41;51.80
70690;BME280;58267;51.156;17.044;2023-04-19T05:26:42;100701.11;;;3.61;51.88
70690;BME280;58267;51.156;17.044;2023-04-19T05:29:07;100699.58;;;3.65;51.26
70690;BME280;58267;51.156;17.044;2023-04-19T05:31:32;100703.13;;;4.31;50.18
70690;BME280;58267;51.156;17.044;2023-04-19T05:33:58;100700.30;;;4.00;50.38
70690;BME280;58267;51.156;17.044;2023-04-19T05:36:23;100697.40;;;2.93;51.76
70690;BME280;58267;51.156;17.044;2023-04-19T05:38:49;100701.67;;;3.22;51.41
70690;BME280;58267;51.156;17.044;2023-04-19T05:41:15;100696.44;;;2.74;52.71
70690;BME280;58267;51.156;17.044;2023-04-19T05:43:40;100692.83;;;3.57;51.50
70690;BME280;58267;51.156;17.044;2023-04-19T05:46:06;100694.70;;;3.79;50.80
70690;BME280;58267;51.156;17.044;2023-04-19T05:48:31;100693.42;;;3.70;50.25
70690;BME280;58267;51.156;17.044;2023-04-19T05:50:57;100685.57;;;2.94;51.04
70690;BME280;58267;51.156;17.044;2023-04-19T05:53:22;100684.82;;;3.63;50.36
70690;BME280;58267;51.156;17.044;2023-04-19T05:55:48;100688.13;;;3.86;49.76
70690;BME280;58267;51.156;17.044;2023-04-19T05:58:14;100684.62;;;3.84;50.88
70690;BME280;58267;51.156;17.044;2023-04-19T06:00:40;100682.01;;;3.34;50.83
70690;BME280;58267;51.156;17.044;2023-04-19T06:03:06;100684.48;;;3.54;50.88
70690;BME280;58267;51.156;17.044;2023-04-19T06:05:32;100685.67;;;4.13;48.89
70690;BME280;58267;51.156;17.044;2023-04-19T06:07:57;100685.93;;;3.64;49.13
70690;BME280;58267;51.156;17.044;2023-04-19T06:10:22;100690.78;;;3.32;49.25
70690;BME280;58267;51.156;17.044;2023-04-19T06:12:52;100691.41;;;3.16;48.98
70690;BME280;58267;51.156;17.044;2023-04-19T06:15:13;100691.25;;;3.36;48.86
70690;BME280;58267;51.156;17.044;2023-04-19T06:17:38;100690.90;;;2.99;50.69
70690;BME280;58267;51.156;17.044;2023-04-19T06:20:05;100688.51;;;3.62;49.83
70690;BME280;58267;51.156;17.044;2023-04-19T06:22:30;100692.14;;;4.05;48.71
70690;BME280;58267;51.156;17.044;2023-04-19T06:24:56;100689.87;;;2.99;50.23
70690;BME280;58267;51.156;17.044;2023-04-19T06:27:21;100691.06;;;3.58;49.89
70690;BME280;58267;51.156;17.044;2023-04-19T06:29:47;100694.46;;;3.12;50.65
70690;BME280;58267;51.156;17.044;2023-04-19T06:32:13;100695.66;;;2.19;52.06
70690;BME280;58267;51.156;17.044;2023-04-19T06:34:39;100696.25;;;2.63;51.88
70690;BME280;58267;51.156;17.044;2023-04-19T06:37:04;100693.29;;;3.80;49.33
70690;BME280;58267;51.156;17.044;2023-04-19T06:39:29;100695.56;;;4.75;48.64
70690;BME280;58267;51.156;17.044;2023-04-19T06:41:55;100696.99;;;4.52;47.92
70690;BME280;58267;51.156;17.044;2023-04-19T06:44:21;100692.11;;;4.08;48.72
70690;BME280;58267;51.156;17.044;2023-04-19T06:46:47;100693.02;;;4.00;48.79
70690;BME280;58267;51.156;17.044;2023-04-19T06:49:12;100693.69;;;4.01;48.96
70690;BME280;58267;51.156;17.044;2023-04-19T06:51:38;100692.48;;;3.37;49.90
70690;BME280;58267;51.156;17.044;2023-04-19T06:54:03;100699.15;;;3.85;50.17
70690;BME280;58267;51.156;17.044;2023-04-19T06:58:54;100694.75;;;4.80;47.66
70690;BME280;58267;51.156;17.044;2023-04-19T07:01:21;100693.45;;;5.37;47.03
70690;BME280;58267;51.156;17.044;2023-04-19T07:03:45;100694.82;;;4.98;47.79
70690;BME280;58267;51.156;17.044;2023-04-19T07:06:11;100698.35;;;4.13;48.72
70690;BME280;58267;51.156;17.044;2023-04-19T07:08:36;100697.64;;;3.91;48.66
70690;BME280;58267;51.156;17.044;2023-04-19T07:11:02;100694.85;;;5.62;46.57
70690;BME280;58267;51.156;17.044;2023-04-19T07:13:28;100701.02;;;3.96;48.92
70690;BME280;58267;51.156;17.044;2023-04-19T07:15:53;100695.54;;;4.64;47.71
70690;BME280;58267;51.156;17.044;2023-04-19T07:18:19;100696.47;;;4.44;48.24
70690;BME280;58267;51.156;17.044;2023-04-19T07:20:45;100693.34;;;4.35;48.57
70690;BME280;58267;51.156;17.044;2023-04-19T07:23:10;100697.35;;;4.27;48.39
70690;BME280;58267;51.156;17.044;2023-04-19T07:25:35;100686.16;;;5.42;46.88
70690;BME280;58267;51.156;17.044;2023-04-19T07:28:00;100692.68;;;5.19;47.39
70690;BME280;58267;51.156;17.044;2023-04-19T07:30:25;100696.35;;;4.50;48.45
70690;BME280;58267;51.156;17.044;2023-04-19T07:32:51;100694.00;;;4.64;47.72
70690;BME280;58267;51.156;17.044;2023-04-19T07:35:16;100689.69;;;4.82;47.64
70690;BME280;58267;51.156;17.044;2023-04-19T07:37:47;100681.73;;;5.11;46.49
70690;BME280;58267;51.156;17.044;2023-04-19T07:40:09;100670.69;;;5.75;45.55
70690;BME280;58267;51.156;17.044;2023-04-19T07:42:34;100674.52;;;4.48;47.94
70690;BME280;58267;51.156;17.044;2023-04-19T07:44:59;100674.64;;;4.92;47.61
70690;BME280;58267;51.156;17.044;2023-04-19T07:47:24;100684.35;;;4.31;49.81
70690;BME280;58267;51.156;17.044;2023-04-19T07:49:51;100683.14;;;4.80;47.95
70690;BME280;58267;51.156;17.044;2023-04-19T07:52:15;100679.77;;;4.87;47.55
70690;BME280;58267;51.156;17.044;2023-04-19T07:54:40;100681.27;;;5.52;46.04
70690;BME280;58267;51.156;17.044;2023-04-19T07:57:05;100675.80;;;5.22;46.56
70690;BME280;58267;51.156;17.044;2023-04-19T07:59:31;100678.90;;;5.38;46.17
70690;BME280;58267;51.156;17.044;2023-04-19T08:01:56;100686.72;;;4.01;48.80
70690;BME280;58267;51.156;17.044;2023-04-19T08:04:22;100682.01;;;4.86;47.17
70690;BME280;58267;51.156;17.044;2023-04-19T08:06:47;100676.15;;;4.11;48.28
70690;BME280;58267;51.156;17.044;2023-04-19T08:09:13;100664.88;;;5.47;46.14
70690;BME280;58267;51.156;17.044;2023-04-19T08:11:39;100670.81;;;4.89;46.67
70690;BME280;58267;51.156;17.044;2023-04-19T08:14:04;100665.45;;;5.42;45.03
70690;BME280;58267;51.156;17.044;2023-04-19T08:16:30;100663.22;;;5.59;45.00
70690;BME280;58267;51.156;17.044;2023-04-19T08:18:55;100665.97;;;6.60;43.60
70690;BME280;58267;51.156;17.044;2023-04-19T08:21:21;100671.67;;;5.90;45.41
70690;BME280;58267;51.156;17.044;2023-04-19T08:23:46;100670.60;;;5.12;45.93
70690;BME280;58267;51.156;17.044;2023-04-19T08:26:12;100671.96;;;5.42;45.81
70690;BME280;58267;51.156;17.044;2023-04-19T08:28:37;100680.04;;;5.02;47.16
70690;BME280;58267;51.156;17.044;2023-04-19T08:31:05;100680.85;;;4.51;47.45
70690;BME280;58267;51.156;17.044;2023-04-19T08:33:28;100676.95;;;4.23;48.92
70690;BME280;58267;51.156;17.044;2023-04-19T08:35:54;100682.70;;;3.78;49.81
70690;BME280;58267;51.156;17.044;2023-04-19T08:38:19;100680.58;;;4.06;49.66
70690;BME280;58267;51.156;17.044;2023-04-19T08:40:48;100679.43;;;4.27;49.02
70690;BME280;58267;51.156;17.044;2023-04-19T08:43:11;100677.57;;;4.58;48.19
70690;BME280;58267;51.156;17.044;2023-04-19T08:45:36;100681.98;;;4.14;49.21
70690;BME280;58267;51.156;17.044;2023-04-19T08:48:01;100676.50;;;4.39;48.72
70690;BME280;58267;51.156;17.044;2023-04-19T08:50:27;100679.03;;;4.65;47.93
70690;BME280;58267;51.156;17.044;2023-04-19T08:52:53;100676.20;;;4.59;47.99
70690;BME280;58267;51.156;17.044;2023-04-19T08:55:18;100676.78;;;4.69;48.47
70690;BME280;58267;51.156;17.044;2023-04-19T08:57:44;100675.76;;;4.38;49.67
70690;BME280;58267;51.156;17.044;2023-04-19T09:00:10;100674.21;;;4.59;49.21
70690;BME280;58267;51.156;17.044;2023-04-19T09:02:45;100671.90;;;4.22;50.17
70690;BME280;58267;51.156;17.044;2023-04-19T09:05:01;100669.24;;;4.27;50.00
70690;BME280;58267;51.156;17.044;2023-04-19T09:07:27;100670.01;;;4.23;49.35
70690;BME280;58267;51.156;17.044;2023-04-19T09:12:17;100665.90;;;4.84;48.82
70690;BME280;58267;51.156;17.044;2023-04-19T09:14:45;100663.54;;;4.82;48.74
70690;BME280;58267;51.156;17.044;2023-04-19T09:17:12;100658.39;;;4.36;50.22
70690;BME280;58267;51.156;17.044;2023-04-19T09:26:55;100651.94;;;4.97;47.45
70690;BME280;58267;51.156;17.044;2023-04-19T09:29:16;100647.46;;;6.06;45.63
70690;BME280;58267;51.156;17.044;2023-04-19T09:34:13;100640.74;;;7.18;43.58
70690;BME280;58267;51.156;17.044;2023-04-19T09:36:34;100640.97;;;6.72;43.61
70690;BME280;58267;51.156;17.044;2023-04-19T09:38:58;100646.38;;;6.19;44.68
70690;BME280;58267;51.156;17.044;2023-04-19T09:41:23;100642.85;;;6.45;44.77
70690;BME280;58267;51.156;17.044;2023-04-19T09:43:48;100649.48;;;6.34;44.74
70690;BME280;58267;51.156;17.044;2023-04-19T09:48:38;100650.17;;;6.11;44.98
70690;BME280;58267;51.156;17.044;2023-04-19T09:51:04;100651.27;;;6.08;45.74
70690;BME280;58267;51.156;17.044;2023-04-19T09:53:30;100650.86;;;5.86;46.42
70690;BME280;58267;51.156;17.044;2023-04-19T09:55:55;100651.68;;;6.02;45.56
70690;BME280;58267;51.156;17.044;2023-04-19T09:58:20;100652.55;;;5.37;47.21
70690;BME280;58267;51.156;17.044;2023-04-19T10:00:51;100651.95;;;6.16;45.85
70690;BME280;58267;51.156;17.044;2023-04-19T10:03:12;100647.37;;;6.71;44.73
70690;BME280;58267;51.156;17.044;2023-04-19T10:05:38;100643.35;;;5.19;47.40
70690;BME280;58267;51.156;17.044;2023-04-19T10:08:03;100646.02;;;5.37;47.08
70690;BME280;58267;51.156;17.044;2023-04-19T10:10:28;100640.40;;;5.48;46.90
70690;BME280;58267;51.156;17.044;2023-04-19T10:12:53;100637.47;;;6.29;45.46
70690;BME280;58267;51.156;17.044;2023-04-19T10:15:19;100639.02;;;6.80;44.92
70690;BME280;58267;51.156;17.044;2023-04-19T10:17:44;100639.40;;;7.14;43.72
70690;BME280;58267;51.156;17.044;2023-04-19T10:20:16;100639.02;;;8.11;42.40
70690;BME280;58267;51.156;17.044;2023-04-19T10:22:35;100636.30;;;7.37;43.39
70690;BME280;58267;51.156;17.044;2023-04-19T10:25:09;100640.32;;;7.53;43.11
70690;BME280;58267;51.156;17.044;2023-04-19T10:27:25;100635.90;;;7.49;42.69
70690;BME280;58267;51.156;17.044;2023-04-19T10:29:55;100635.12;;;7.13;43.39
70690;BME280;58267;51.156;17.044;2023-04-19T10:32:16;100630.43;;;7.10;43.75
70690;BME280;58267;51.156;17.044;2023-04-19T10:34:42;100627.92;;;6.56;45.19
70690;BME280;58267;51.156;17.044;2023-04-19T10:37:10;100626.54;;;5.54;47.51
70690;BME280;58267;51.156;17.044;2023-04-19T10:39:39;100630.99;;;5.78;46.99
70690;BME280;58267;51.156;17.044;2023-04-19T10:41:58;100627.84;;;6.17;46.38
70690;BME280;58267;51.156;17.044;2023-04-19T10:44:24;100624.02;;;6.10;46.31
70690;BME280;58267;51.156;17.044;2023-04-19T10:46:50;100625.76;;;6.45;46.50
70690;BME280;58267;51.156;17.044;2023-04-19T10:49:15;100631.25;;;6.54;45.65
70690;BME280;58267;51.156;17.044;2023-04-19T10:51:47;100630.04;;;5.68;47.28
70690;BME280;58267;51.156;17.044;2023-04-19T10:54:07;100627.65;;;5.18;48.74
70690;BME280;58267;51.156;17.044;2023-04-19T11:03:51;100623.02;;;5.53;48.72
70690;BME280;58267;51.156;17.044;2023-04-19T11:06:15;100623.41;;;5.96;48.53
70690;BME280;58267;51.156;17.044;2023-04-19T11:08:42;100623.14;;;6.06;48.41
70690;BME280;58267;51.156;17.044;2023-04-19T11:11:04;100618.83;;;6.32;47.76
70690;BME280;58267;51.156;17.044;2023-04-19T11:13:29;100618.92;;;6.52;47.47
70690;BME280;58267;51.156;17.044;2023-04-19T11:15:57;100621.77;;;5.93;48.41
70690;BME280;58267;51.156;17.044;2023-04-19T11:18:20;100624.49;;;4.35;51.43
70690;BME280;58267;51.156;17.044;2023-04-19T11:20:45;100623.08;;;5.16;50.63
70690;BME280;58267;51.156;17.044;2023-04-19T11:23:15;100621.09;;;5.16;51.22
70690;BME280;58267;51.156;17.044;2023-04-19T11:25:44;100622.25;;;4.86;52.17
70690;BME280;58267;51.156;17.044;2023-04-19T11:28:02;100620.22;;;5.12;51.74
70690;BME280;58267;51.156;17.044;2023-04-19T11:30:29;100621.73;;;5.47;50.52
70690;BME280;58267;51.156;17.044;2023-04-19T11:32:55;100617.64;;;5.16;51.44
70690;BME280;58267;51.156;17.044;2023-04-19T11:35:20;100616.83;;;4.97;52.12
70690;BME280;58267;51.156;17.044;2023-04-19T11:37:45;100622.62;;;4.40;53.35
70690;BME280;58267;51.156;17.044;2023-04-19T11:40:14;100614.88;;;5.20;51.10
70690;BME280;58267;51.156;17.044;2023-04-19T11:42:35;100614.16;;;5.08;51.69
70690;BME280;58267;51.156;17.044;2023-04-19T11:45:06;100618.15;;;4.86;51.56
70690;BME280;58267;51.156;17.044;2023-04-19T11:47:26;100628.49;;;4.58;53.22
70690;BME280;58267;51.156;17.044;2023-04-19T11:49:53;100620.56;;;4.81;52.56
70690;BME280;58267;51.156;17.044;2023-04-19T11:52:21;100621.09;;;5.78;49.93
70690;BME280;58267;51.156;17.044;2023-04-19T11:54:42;100616.48;;;5.38;50.79
70690;BME280;58267;51.156;17.044;2023-04-19T11:57:08;100620.33;;;4.56;52.74
70690;BME280;58267;51.156;17.044;2023-04-19T11:59:35;100619.62;;;5.07;52.49
70690;BME280;58267;51.156;17.044;2023-04-19T12:02:05;100623.78;;;5.61;51.11
70690;BME280;58267;51.156;17.044;2023-04-19T12:04:24;100619.42;;;6.04;49.97
70690;BME280;58267;51.156;17.044;2023-04-19T12:06:57;100620.74;;;6.18;49.70
70690;BME280;58267;51.156;17.044;2023-04-19T12:09:19;100623.86;;;5.79;50.72
70690;BME280;58267;51.156;17.044;2023-04-19T12:11:43;100619.75;;;5.49;51.14
70690;BME280;58267;51.156;17.044;2023-04-19T12:14:08;100617.28;;;5.29;51.39
70690;BME280;58267;51.156;17.044;2023-04-19T12:16:30;100617.71;;;5.02;52.81
70690;BME280;58267;51.156;17.044;2023-04-19T12:18:56;100621.09;;;5.06;52.70
70690;BME280;58267;51.156;17.044;2023-04-19T12:21:26;100625.48;;;3.74;55.76
70690;BME280;58267;51.156;17.044;2023-04-19T12:23:46;100627.79;;;4.21;54.91
70690;BME280;58267;51.156;17.044;2023-04-19T12:26:12;100628.93;;;4.44;54.37
70690;BME280;58267;51.156;17.044;2023-04-19T12:28:37;100619.77;;;5.43;52.10
70690;BME280;58267;51.156;17.044;2023-04-19T12:31:03;100623.83;;;4.30;53.97
70690;BME280;58267;51.156;17.044;2023-04-19T12:33:28;100622.47;;;4.67;53.92
70690;BME280;58267;51.156;17.044;2023-04-19T12:35:54;100626.24;;;4.44;53.90
70690;BME280;58267;51.156;17.044;2023-04-19T12:38:20;100623.50;;;4.56;53.46
70690;BME280;58267;51.156;17.044;2023-04-19T12:40:45;100631.13;;;4.55;53.73
70690;BME280;58267;51.156;17.044;2023-04-19T12:43:10;100623.03;;;4.80;52.67
70690;BME280;58267;51.156;17.044;2023-04-19T12:45:37;100629.34;;;4.42;53.51
70690;BME280;58267;51.156;17.044;2023-04-19T12:48:02;100626.78;;;4.80;52.38
70690;BME280;58267;51.156;17.044;2023-04-19T12:50:26;100625.88;;;5.60;51.17
70690;BME280;58267;51.156;17.044;2023-04-19T12:52:52;100624.68;;;5.55;50.31
70690;BME280;58267;51.156;17.044;2023-04-19T12:55:17;100624.32;;;4.60;52.02
70690;BME280;58267;51.156;17.044;2023-04-19T12:57:42;100632.22;;;4.68;52.42
70690;BME280;58267;51.156;17.044;2023-04-19T13:00:09;100630.74;;;4.51;52.62
70690;BME280;58267;51.156;17.044;2023-04-19T13:02:34;100627.86;;;4.26;53.70
70690;BME280;58267;51.156;17.044;2023-04-19T13:04:59;100633.13;;;4.39;52.97
70690;BME280;58267;51.156;17.044;2023-04-19T13:07:24;100630.02;;;3.89;54.05
70690;BME280;58267;51.156;17.044;2023-04-19T13:09:50;100632.12;;;3.18;55.47